首页
METAR-TAF:

METAR-TAF

机场 :

新加坡, 新加坡

新加坡樟宜机场

纬度: 01-22N, 经度: 103-59E, 海拔: 5米

当前天气观测

该预报发布于19分钟前的03:00 UTC
风速4节,风向,在西北东转东北之间变化
温度 29°C
湿度 74%
气压 1010 hPa
能见度10公里或以上
少量云层高于1800英尺
散云层高于28000英尺

METAR: WSSS 200300Z 01004KT 310V060 9999 FEW018 SCT280 29/24 Q1010 NOSIG

时间: 11:19 (03:19 UTC)

预报

该预报发布于4小时和19分钟前的23:00 UTC
预报有效从20日的 00点(UTC)到 21日的 06点(UTC)
风速8节,风向
能见度10公里或以上
少量云层高于1800英尺, 积雨云.
散云层高于2000英尺
短暂存在
从 20日的 06点(UTC)到 20日的 10点(UTC)
能見度: 3000
少量云层高于1200英尺, 积雨云.
多云层高于1500英尺
雷暴, 雨

TAF: WSSS 192300Z 2000/2106 36008KT 9999 FEW018CB SCT020 TEMPO 2006/2010 3000 TSRA FEW012CB BKN015

超过4000个机场的气象观测和天气预报(METAR&TAF报告)。

可查询的气象台以黄色和红色小点在地图上表示。

将鼠标移到小点上方,可查看气象台名称。

然后点击查看天气观测和预报。

如需切换地图:点击带黑十字的绿色按钮放大地图;点击带横线的绿色按钮缩小地图;或者点击绿色箭头查看邻近地区的地图。


METAR-TAF: